sensor_id;sensor_type;location;lat;lon;timestamp;pressure;altitude;pressure_sealevel;temperature;humidity
44148;BME280;29810;55.848;37.368;2022-10-23T00:02:22;99148.63;;;6.30;79.86
44148;BME280;29810;55.848;37.368;2022-10-23T00:05:24;99138.34;;;6.27;80.28
44148;BME280;29810;55.848;37.368;2022-10-23T00:08:26;99136.81;;;6.17;80.31
44148;BME280;29810;55.848;37.368;2022-10-23T00:11:29;99141.22;;;6.12;80.41
44148;BME280;29810;55.848;37.368;2022-10-23T00:14:30;99130.91;;;6.09;80.45
44148;BME280;29810;55.848;37.368;2022-10-23T00:17:32;99130.97;;;6.06;80.54
44148;BME280;29810;55.848;37.368;2022-10-23T00:20:35;99125.81;;;6.06;80.56
44148;BME280;29810;55.848;37.368;2022-10-23T00:23:40;99124.00;;;6.09;80.70
44148;BME280;29810;55.848;37.368;2022-10-23T00:26:42;99126.66;;;6.08;80.69
44148;BME280;29810;55.848;37.368;2022-10-23T00:29:44;99123.16;;;6.09;80.50
44148;BME280;29810;55.848;37.368;2022-10-23T00:32:46;99115.38;;;6.09;80.34
44148;BME280;29810;55.848;37.368;2022-10-23T00:35:48;99095.69;;;6.02;80.68
44148;BME280;29810;55.848;37.368;2022-10-23T00:38:50;99106.84;;;6.04;80.86
44148;BME280;29810;55.848;37.368;2022-10-23T00:41:52;99104.31;;;6.02;80.81
44148;BME280;29810;55.848;37.368;2022-10-23T00:47:55;99099.09;;;6.05;80.95
44148;BME280;29810;55.848;37.368;2022-10-23T00:50:56;99090.41;;;6.06;80.86
44148;BME280;29810;55.848;37.368;2022-10-23T00:53:59;99081.50;;;6.21;82.30
44148;BME280;29810;55.848;37.368;2022-10-23T00:57:05;99082.16;;;6.29;81.50
44148;BME280;29810;55.848;37.368;2022-10-23T01:00:13;99074.50;;;6.25;81.11
44148;BME280;29810;55.848;37.368;2022-10-23T01:03:17;99079.78;;;6.20;81.45
44148;BME280;29810;55.848;37.368;2022-10-23T01:09:44;99068.78;;;6.09;81.66
44148;BME280;29810;55.848;37.368;2022-10-23T01:12:54;99072.28;;;6.08;81.51
44148;BME280;29810;55.848;37.368;2022-10-23T01:16:18;99065.53;;;6.01;82.48
44148;BME280;29810;55.848;37.368;2022-10-23T01:23:16;99068.06;;;6.02;81.81
44148;BME280;29810;55.848;37.368;2022-10-23T01:30:03;99058.00;;;5.87;81.26
44148;BME280;29810;55.848;37.368;2022-10-23T01:33:19;99056.34;;;5.83;82.74
44148;BME280;29810;55.848;37.368;2022-10-23T01:36:27;99050.56;;;5.70;81.30
44148;BME280;29810;55.848;37.368;2022-10-23T01:39:37;99051.72;;;5.55;81.28
44148;BME280;29810;55.848;37.368;2022-10-23T01:42:46;99044.28;;;5.38;81.92
44148;BME280;29810;55.848;37.368;2022-10-23T01:45:55;99050.59;;;5.21;82.43
44148;BME280;29810;55.848;37.368;2022-10-23T01:48:59;99043.19;;;5.03;82.77
44148;BME280;29810;55.848;37.368;2022-10-23T01:52:06;99045.03;;;4.94;83.67
44148;BME280;29810;55.848;37.368;2022-10-23T01:55:10;99040.81;;;4.90;84.13
44148;BME280;29810;55.848;37.368;2022-10-23T01:58:14;99036.75;;;4.74;83.80
44148;BME280;29810;55.848;37.368;2022-10-23T02:01:19;99040.34;;;4.63;84.11
44148;BME280;29810;55.848;37.368;2022-10-23T02:04:33;99040.41;;;4.60;85.39
44148;BME280;29810;55.848;37.368;2022-10-23T02:07:36;99031.00;;;4.55;85.78
44148;BME280;29810;55.848;37.368;2022-10-23T02:10:45;99025.09;;;4.48;85.24
44148;BME280;29810;55.848;37.368;2022-10-23T02:17:28;99028.59;;;4.44;86.14
44148;BME280;29810;55.848;37.368;2022-10-23T02:20:46;99016.63;;;4.40;87.66
44148;BME280;29810;55.848;37.368;2022-10-23T02:23:52;99011.66;;;4.27;86.65
44148;BME280;29810;55.848;37.368;2022-10-23T02:26:58;99016.75;;;4.30;86.50
44148;BME280;29810;55.848;37.368;2022-10-23T02:30:06;99023.56;;;4.36;86.75
44148;BME280;29810;55.848;37.368;2022-10-23T02:33:10;99020.19;;;4.33;86.67
44148;BME280;29810;55.848;37.368;2022-10-23T02:36:15;99025.47;;;4.22;86.26
44148;BME280;29810;55.848;37.368;2022-10-23T02:39:16;99022.88;;;4.23;88.44
44148;BME280;29810;55.848;37.368;2022-10-23T02:42:25;99017.81;;;4.17;87.66
44148;BME280;29810;55.848;37.368;2022-10-23T02:45:54;99013.66;;;4.07;87.25
44148;BME280;29810;55.848;37.368;2022-10-23T02:49:23;99011.09;;;4.05;87.11
44148;BME280;29810;55.848;37.368;2022-10-23T02:52:41;99006.00;;;4.01;87.39
44148;BME280;29810;55.848;37.368;2022-10-23T02:59:18;99011.22;;;3.96;86.51
44148;BME280;29810;55.848;37.368;2022-10-23T03:02:31;98998.34;;;3.96;86.97
44148;BME280;29810;55.848;37.368;2022-10-23T03:05:37;98995.00;;;3.86;86.73
44148;BME280;29810;55.848;37.368;2022-10-23T03:08:46;98996.75;;;3.86;86.73
44148;BME280;29810;55.848;37.368;2022-10-23T03:11:50;98999.31;;;3.84;86.65
44148;BME280;29810;55.848;37.368;2022-10-23T03:14:52;98968.62;;;3.65;86.63
44148;BME280;29810;55.848;37.368;2022-10-23T03:17:54;98990.78;;;3.80;86.73
44148;BME280;29810;55.848;37.368;2022-10-23T03:20:56;98983.06;;;3.79;86.73
44148;BME280;29810;55.848;37.368;2022-10-23T03:23:57;98983.97;;;3.75;86.61
44148;BME280;29810;55.848;37.368;2022-10-23T03:27:00;98965.19;;;3.65;86.69
44148;BME280;29810;55.848;37.368;2022-10-23T03:30:04;98972.84;;;3.70;86.79
44148;BME280;29810;55.848;37.368;2022-10-23T03:33:07;98968.66;;;3.62;87.01
44148;BME280;29810;55.848;37.368;2022-10-23T03:36:09;98963.50;;;3.64;87.11
44148;BME280;29810;55.848;37.368;2022-10-23T03:39:10;98976.34;;;3.65;87.18
44148;BME280;29810;55.848;37.368;2022-10-23T03:42:12;98970.31;;;3.67;87.14
44148;BME280;29810;55.848;37.368;2022-10-23T03:45:14;98964.44;;;3.55;87.20
44148;BME280;29810;55.848;37.368;2022-10-23T03:48:16;98969.53;;;3.61;87.38
44148;BME280;29810;55.848;37.368;2022-10-23T03:51:18;98968.69;;;3.59;87.46
44148;BME280;29810;55.848;37.368;2022-10-23T03:54:24;98969.59;;;3.55;87.35
44148;BME280;29810;55.848;37.368;2022-10-23T03:57:26;98968.72;;;3.56;87.56
44148;BME280;29810;55.848;37.368;2022-10-23T04:00:27;98959.41;;;3.46;87.77
44148;BME280;29810;55.848;37.368;2022-10-23T04:03:29;98963.66;;;3.50;87.74
44148;BME280;29810;55.848;37.368;2022-10-23T04:06:30;98955.97;;;3.47;87.83
44148;BME280;29810;55.848;37.368;2022-10-23T04:09:32;98960.28;;;3.46;88.20
44148;BME280;29810;55.848;37.368;2022-10-23T04:12:34;98945.69;;;3.44;88.11
44148;BME280;29810;55.848;37.368;2022-10-23T04:15:36;98952.47;;;3.51;87.76
44148;BME280;29810;55.848;37.368;2022-10-23T04:18:41;98947.44;;;3.42;88.12
44148;BME280;29810;55.848;37.368;2022-10-23T04:21:43;98956.03;;;3.41;88.38
44148;BME280;29810;55.848;37.368;2022-10-23T04:24:47;98950.88;;;3.41;88.49
44148;BME280;29810;55.848;37.368;2022-10-23T04:27:51;98944.81;;;3.43;88.76
44148;BME280;29810;55.848;37.368;2022-10-23T04:30:53;98942.22;;;3.45;88.60
44148;BME280;29810;55.848;37.368;2022-10-23T04:33:56;98954.22;;;3.49;88.58
44148;BME280;29810;55.848;37.368;2022-10-23T04:36:59;98950.75;;;3.50;88.68
44148;BME280;29810;55.848;37.368;2022-10-23T04:40:01;98943.03;;;3.52;88.68
44148;BME280;29810;55.848;37.368;2022-10-23T04:43:04;98941.28;;;3.52;88.60
44148;BME280;29810;55.848;37.368;2022-10-23T04:46:06;98945.47;;;3.62;88.73
44148;BME280;29810;55.848;37.368;2022-10-23T04:49:08;98936.84;;;3.65;88.62
44148;BME280;29810;55.848;37.368;2022-10-23T04:52:14;98936.81;;;3.67;88.43
44148;BME280;29810;55.848;37.368;2022-10-23T04:55:16;98938.47;;;3.71;88.46
44148;BME280;29810;55.848;37.368;2022-10-23T04:58:18;98927.34;;;3.67;88.25
44148;BME280;29810;55.848;37.368;2022-10-23T05:01:19;98930.66;;;3.77;88.14
44148;BME280;29810;55.848;37.368;2022-10-23T05:04:22;98928.03;;;3.80;87.89
44148;BME280;29810;55.848;37.368;2022-10-23T05:07:27;98934.00;;;3.84;87.95
44148;BME280;29810;55.848;37.368;2022-10-23T05:10:31;98933.91;;;3.91;87.76
44148;BME280;29810;55.848;37.368;2022-10-23T05:13:38;98925.31;;;3.91;87.62
44148;BME280;29810;55.848;37.368;2022-10-23T05:16:49;98936.16;;;4.13;87.52
44148;BME280;29810;55.848;37.368;2022-10-23T05:19:54;98932.47;;;4.29;87.15
44148;BME280;29810;55.848;37.368;2022-10-23T05:22:58;98932.22;;;4.45;86.69
44148;BME280;29810;55.848;37.368;2022-10-23T05:26:00;98940.31;;;4.75;86.08
44148;BME280;29810;55.848;37.368;2022-10-23T05:29:05;98935.72;;;4.91;85.08
44148;BME280;29810;55.848;37.368;2022-10-23T05:32:07;98929.59;;;4.96;84.22
44148;BME280;29810;55.848;37.368;2022-10-23T05:35:14;98931.12;;;5.07;83.48
44148;BME280;29810;55.848;37.368;2022-10-23T05:38:20;98918.09;;;5.13;83.17
44148;BME280;29810;55.848;37.368;2022-10-23T05:41:24;98920.66;;;5.13;82.69
44148;BME280;29810;55.848;37.368;2022-10-23T05:44:34;98914.44;;;5.23;82.61
44148;BME280;29810;55.848;37.368;2022-10-23T05:47:37;98909.25;;;5.25;82.23
44148;BME280;29810;55.848;37.368;2022-10-23T05:50:39;98918.56;;;5.34;82.07
44148;BME280;29810;55.848;37.368;2022-10-23T05:54:02;98922.97;;;5.28;81.53
44148;BME280;29810;55.848;37.368;2022-10-23T05:57:18;98915.12;;;5.31;81.27
44148;BME280;29810;55.848;37.368;2022-10-23T06:00:22;98918.37;;;5.43;81.41
44148;BME280;29810;55.848;37.368;2022-10-23T06:03:29;98911.16;;;5.57;80.79
44148;BME280;29810;55.848;37.368;2022-10-23T06:06:30;98902.19;;;5.74;80.35
44148;BME280;29810;55.848;37.368;2022-10-23T06:09:32;98896.69;;;5.88;79.84
44148;BME280;29810;55.848;37.368;2022-10-23T06:12:34;98894.75;;;5.99;79.28
44148;BME280;29810;55.848;37.368;2022-10-23T06:15:37;98887.78;;;6.03;78.94
44148;BME280;29810;55.848;37.368;2022-10-23T06:18:39;98885.12;;;6.04;78.87
44148;BME280;29810;55.848;37.368;2022-10-23T06:21:43;98890.28;;;6.06;78.85
44148;BME280;29810;55.848;37.368;2022-10-23T06:24:45;98877.34;;;6.06;78.62
44148;BME280;29810;55.848;37.368;2022-10-23T06:27:47;98872.03;;;6.12;78.85
44148;BME280;29810;55.848;37.368;2022-10-23T06:30:48;98867.41;;;6.23;78.35
44148;BME280;29810;55.848;37.368;2022-10-23T06:33:56;98849.56;;;6.12;77.96
44148;BME280;29810;55.848;37.368;2022-10-23T06:36:58;98862.72;;;6.39;77.70
44148;BME280;29810;55.848;37.368;2022-10-23T06:40:00;98859.84;;;6.50;77.57
44148;BME280;29810;55.848;37.368;2022-10-23T06:43:04;98862.28;;;6.56;77.22
44148;BME280;29810;55.848;37.368;2022-10-23T06:46:07;98856.13;;;6.60;76.82
44148;BME280;29810;55.848;37.368;2022-10-23T06:49:14;98847.81;;;6.80;76.55
44148;BME280;29810;55.848;37.368;2022-10-23T06:52:18;98842.34;;;6.91;75.86
44148;BME280;29810;55.848;37.368;2022-10-23T06:55:19;98840.66;;;6.90;75.58
44148;BME280;29810;55.848;37.368;2022-10-23T06:58:21;98838.41;;;7.08;75.35
44148;BME280;29810;55.848;37.368;2022-10-23T07:01:30;98846.66;;;7.22;74.66
44148;BME280;29810;55.848;37.368;2022-10-23T07:04:33;98823.00;;;7.33;74.01
44148;BME280;29810;55.848;37.368;2022-10-23T07:07:34;98836.59;;;7.41;73.79
44148;BME280;29810;55.848;37.368;2022-10-23T07:10:38;98821.06;;;7.40;73.48
44148;BME280;29810;55.848;37.368;2022-10-23T07:13:43;98823.44;;;7.48;73.29
44148;BME280;29810;55.848;37.368;2022-10-23T07:16:48;98823.38;;;7.49;73.36
44148;BME280;29810;55.848;37.368;2022-10-23T07:19:50;98829.06;;;7.62;73.30
44148;BME280;29810;55.848;37.368;2022-10-23T07:22:52;98820.03;;;7.74;72.95
44148;BME280;29810;55.848;37.368;2022-10-23T07:26:08;98817.63;;;7.94;72.58
44148;BME280;29810;55.848;37.368;2022-10-23T07:29:11;98812.00;;;8.08;71.81
44148;BME280;29810;55.848;37.368;2022-10-23T07:32:12;98810.41;;;8.04;71.56
44148;BME280;29810;55.848;37.368;2022-10-23T07:35:17;98809.19;;;8.15;71.46
44148;BME280;29810;55.848;37.368;2022-10-23T07:38:19;98810.78;;;8.19;71.06
44148;BME280;29810;55.848;37.368;2022-10-23T07:41:21;98804.25;;;8.07;70.59
44148;BME280;29810;55.848;37.368;2022-10-23T07:44:22;98806.22;;;8.00;71.05
44148;BME280;29810;55.848;37.368;2022-10-23T07:47:25;98798.94;;;8.10;70.99
44148;BME280;29810;55.848;37.368;2022-10-23T07:50:28;98797.16;;;8.12;71.00
44148;BME280;29810;55.848;37.368;2022-10-23T07:53:30;98805.06;;;8.09;70.97
44148;BME280;29810;55.848;37.368;2022-10-23T07:56:33;98793.56;;;8.16;70.84
44148;BME280;29810;55.848;37.368;2022-10-23T07:59:37;98789.63;;;8.29;70.67
44148;BME280;29810;55.848;37.368;2022-10-23T08:02:40;98783.28;;;8.38;70.27
44148;BME280;29810;55.848;37.368;2022-10-23T08:05:42;98782.28;;;8.68;69.71
44148;BME280;29810;55.848;37.368;2022-10-23T08:08:43;98784.66;;;8.74;69.19
44148;BME280;29810;55.848;37.368;2022-10-23T08:11:45;98786.56;;;8.69;69.40
44148;BME280;29810;55.848;37.368;2022-10-23T08:14:49;98786.63;;;8.67;69.59
44148;BME280;29810;55.848;37.368;2022-10-23T08:17:51;98783.75;;;8.51;69.62
44148;BME280;29810;55.848;37.368;2022-10-23T08:21:00;98775.34;;;8.43;69.72
44148;BME280;29810;55.848;37.368;2022-10-23T08:24:02;98787.78;;;8.60;69.64
44148;BME280;29810;55.848;37.368;2022-10-23T08:27:05;98760.53;;;8.45;69.59
44148;BME280;29810;55.848;37.368;2022-10-23T08:30:11;98779.84;;;8.63;69.57
44148;BME280;29810;55.848;37.368;2022-10-23T08:33:12;98781.28;;;8.72;69.32
44148;BME280;29810;55.848;37.368;2022-10-23T08:36:22;98776.53;;;8.83;69.26
44148;BME280;29810;55.848;37.368;2022-10-23T08:39:25;98767.06;;;8.82;69.18
44148;BME280;29810;55.848;37.368;2022-10-23T08:42:28;98779.59;;;8.71;69.35
44148;BME280;29810;55.848;37.368;2022-10-23T08:45:41;98767.81;;;8.60;69.55
44148;BME280;29810;55.848;37.368;2022-10-23T08:48:52;98772.56;;;8.73;69.73
44148;BME280;29810;55.848;37.368;2022-10-23T08:51:59;98771.50;;;8.78;69.85
44148;BME280;29810;55.848;37.368;2022-10-23T08:58:21;98767.50;;;8.44;70.37
44148;BME280;29810;55.848;37.368;2022-10-23T09:04:30;98760.28;;;8.27;71.09
44148;BME280;29810;55.848;37.368;2022-10-23T09:11:14;98750.22;;;8.18;71.97
44148;BME280;29810;55.848;37.368;2022-10-23T09:14:33;98751.69;;;8.00;72.17
44148;BME280;29810;55.848;37.368;2022-10-23T09:17:42;98748.97;;;8.03;72.59
44148;BME280;29810;55.848;37.368;2022-10-23T09:20:45;98746.13;;;7.86;72.54
44148;BME280;29810;55.848;37.368;2022-10-23T09:23:46;98749.66;;;7.83;72.84
44148;BME280;29810;55.848;37.368;2022-10-23T09:26:50;98744.34;;;7.86;73.09
44148;BME280;29810;55.848;37.368;2022-10-23T09:29:53;98736.19;;;7.99;73.03
44148;BME280;29810;55.848;37.368;2022-10-23T09:32:55;98736.00;;;8.03;72.60
44148;BME280;29810;55.848;37.368;2022-10-23T09:35:59;98728.75;;;8.13;72.60
44148;BME280;29810;55.848;37.368;2022-10-23T09:39:01;98729.44;;;8.18;72.49
44148;BME280;29810;55.848;37.368;2022-10-23T09:42:19;98729.66;;;8.12;72.49
44148;BME280;29810;55.848;37.368;2022-10-23T09:45:31;98724.25;;;8.18;73.05
44148;BME280;29810;55.848;37.368;2022-10-23T09:48:34;98719.75;;;8.23;72.87
44148;BME280;29810;55.848;37.368;2022-10-23T09:51:37;98707.59;;;8.24;72.56
44148;BME280;29810;55.848;37.368;2022-10-23T09:54:47;98693.03;;;8.20;72.47
44148;BME280;29810;55.848;37.368;2022-10-23T09:57:51;98712.41;;;8.35;72.67
44148;BME280;29810;55.848;37.368;2022-10-23T10:00:53;98708.34;;;8.27;72.68
44148;BME280;29810;55.848;37.368;2022-10-23T10:04:09;98702.63;;;8.18;72.98
44148;BME280;29810;55.848;37.368;2022-10-23T10:07:37;98708.06;;;8.10;73.25
44148;BME280;29810;55.848;37.368;2022-10-23T10:10:44;98684.66;;;8.11;74.50
44148;BME280;29810;55.848;37.368;2022-10-23T10:17:30;98698.44;;;7.88;74.75
44148;BME280;29810;55.848;37.368;2022-10-23T10:20:56;98698.50;;;8.12;75.24
44148;BME280;29810;55.848;37.368;2022-10-23T10:25:06;98703.72;;;8.36;74.33
44148;BME280;29810;55.848;37.368;2022-10-23T10:31:21;98685.66;;;8.07;74.60
44148;BME280;29810;55.848;37.368;2022-10-23T10:34:42;98679.31;;;8.16;75.66
44148;BME280;29810;55.848;37.368;2022-10-23T10:47:54;98669.28;;;7.80;76.99
44148;BME280;29810;55.848;37.368;2022-10-23T10:55:40;98656.75;;;7.93;77.44
44148;BME280;29810;55.848;37.368;2022-10-23T10:58:46;98648.28;;;7.88;77.47
44148;BME280;29810;55.848;37.368;2022-10-23T11:05:18;98643.84;;;7.66;77.45
44148;BME280;29810;55.848;37.368;2022-10-23T11:11:35;98640.00;;;7.51;78.47
44148;BME280;29810;55.848;37.368;2022-10-23T11:14:37;98633.91;;;7.52;78.92
44148;BME280;29810;55.848;37.368;2022-10-23T11:17:47;98629.69;;;7.50;78.70
44148;BME280;29810;55.848;37.368;2022-10-23T11:24:10;98627.81;;;7.28;80.25
44148;BME280;29810;55.848;37.368;2022-10-23T11:34:21;98623.41;;;7.30;81.60
44148;BME280;29810;55.848;37.368;2022-10-23T11:37:31;98606.25;;;7.26;81.55
44148;BME280;29810;55.848;37.368;2022-10-23T11:40:32;98614.22;;;7.20;80.76
44148;BME280;29810;55.848;37.368;2022-10-23T11:43:53;98596.31;;;7.12;81.24
44148;BME280;29810;55.848;37.368;2022-10-23T11:47:04;98603.97;;;7.17;82.76
44148;BME280;29810;55.848;37.368;2022-10-23T11:53:24;98596.97;;;7.19;82.35
44148;BME280;29810;55.848;37.368;2022-10-23T11:56:31;98593.81;;;7.36;83.39
44148;BME280;29810;55.848;37.368;2022-10-23T11:59:35;98593.28;;;7.26;82.78
44148;BME280;29810;55.848;37.368;2022-10-23T12:02:42;98591.91;;;7.42;82.58
44148;BME280;29810;55.848;37.368;2022-10-23T12:05:44;98588.81;;;7.31;82.09
44148;BME280;29810;55.848;37.368;2022-10-23T12:08:49;98588.22;;;7.23;82.76
44148;BME280;29810;55.848;37.368;2022-10-23T12:15:17;98581.91;;;7.30;84.30
44148;BME280;29810;55.848;37.368;2022-10-23T12:18:19;98583.63;;;7.31;84.63
44148;BME280;29810;55.848;37.368;2022-10-23T12:21:23;98584.69;;;7.25;83.92
44148;BME280;29810;55.848;37.368;2022-10-23T12:24:41;98584.72;;;7.24;84.55
44148;BME280;29810;55.848;37.368;2022-10-23T12:27:49;98585.47;;;7.27;85.69
44148;BME280;29810;55.848;37.368;2022-10-23T12:31:07;98586.41;;;7.25;85.26
44148;BME280;29810;55.848;37.368;2022-10-23T12:35:02;98586.25;;;7.29;85.82
44148;BME280;29810;55.848;37.368;2022-10-23T12:38:12;98571.81;;;7.22;85.94
44148;BME280;29810;55.848;37.368;2022-10-23T12:41:27;98572.03;;;7.16;86.61
44148;BME280;29810;55.848;37.368;2022-10-23T12:44:29;98577.28;;;7.13;86.59
44148;BME280;29810;55.848;37.368;2022-10-23T12:47:30;98560.28;;;7.04;86.32
44148;BME280;29810;55.848;37.368;2022-10-23T12:50:34;98566.22;;;7.08;86.61
44148;BME280;29810;55.848;37.368;2022-10-23T12:53:36;98572.88;;;7.17;87.14
44148;BME280;29810;55.848;37.368;2022-10-23T12:56:46;98559.06;;;7.16;86.98
44148;BME280;29810;55.848;37.368;2022-10-23T12:59:50;98561.84;;;7.10;86.95
44148;BME280;29810;55.848;37.368;2022-10-23T13:03:02;98561.09;;;7.06;87.39
44148;BME280;29810;55.848;37.368;2022-10-23T13:06:04;98549.78;;;7.09;87.93
44148;BME280;29810;55.848;37.368;2022-10-23T13:10:00;98547.78;;;7.17;87.67
44148;BME280;29810;55.848;37.368;2022-10-23T13:12:54;98552.66;;;7.26;88.33
44148;BME280;29810;55.848;37.368;2022-10-23T13:15:56;98545.66;;;7.28;88.07
44148;BME280;29810;55.848;37.368;2022-10-23T13:18:57;98543.03;;;7.30;87.52
44148;BME280;29810;55.848;37.368;2022-10-23T13:22:00;98543.81;;;7.32;87.75
44148;BME280;29810;55.848;37.368;2022-10-23T13:25:19;98535.50;;;7.22;87.80
44148;BME280;29810;55.848;37.368;2022-10-23T13:28:31;98533.81;;;7.21;88.73
44148;BME280;29810;55.848;37.368;2022-10-23T13:31:33;98527.16;;;7.14;89.60
44148;BME280;29810;55.848;37.368;2022-10-23T13:34:34;98534.12;;;7.12;88.97
44148;BME280;29810;55.848;37.368;2022-10-23T13:37:36;98524.75;;;7.08;89.13
44148;BME280;29810;55.848;37.368;2022-10-23T13:40:38;98529.75;;;7.14;89.32
44148;BME280;29810;55.848;37.368;2022-10-23T13:43:40;98534.94;;;7.14;89.32
44148;BME280;29810;55.848;37.368;2022-10-23T13:46:42;98525.44;;;7.13;89.32
44148;BME280;29810;55.848;37.368;2022-10-23T13:49:43;98529.56;;;7.19;89.41
44148;BME280;29810;55.848;37.368;2022-10-23T13:52:46;98524.50;;;7.16;89.45
44148;BME280;29810;55.848;37.368;2022-10-23T13:55:49;98515.81;;;7.17;89.68
44148;BME280;29810;55.848;37.368;2022-10-23T13:58:53;98515.88;;;7.15;90.00
44148;BME280;29810;55.848;37.368;2022-10-23T14:01:55;98513.28;;;7.15;89.89
44148;BME280;29810;55.848;37.368;2022-10-23T14:04:57;98513.38;;;7.12;90.05
44148;BME280;29810;55.848;37.368;2022-10-23T14:07:59;98509.00;;;7.14;90.15
44148;BME280;29810;55.848;37.368;2022-10-23T14:11:03;98512.34;;;7.18;90.39
44148;BME280;29810;55.848;37.368;2022-10-23T14:14:04;98510.53;;;7.20;90.47
44148;BME280;29810;55.848;37.368;2022-10-23T14:17:06;98504.50;;;7.19;90.34
44148;BME280;29810;55.848;37.368;2022-10-23T14:20:08;98510.62;;;7.17;90.81
44148;BME280;29810;55.848;37.368;2022-10-23T14:23:14;98510.91;;;7.09;91.20
44148;BME280;29810;55.848;37.368;2022-10-23T14:26:23;98499.63;;;7.10;91.52
44148;BME280;29810;55.848;37.368;2022-10-23T14:29:25;98499.19;;;7.22;92.97
44148;BME280;29810;55.848;37.368;2022-10-23T14:32:26;98494.97;;;7.20;92.14
44148;BME280;29810;55.848;37.368;2022-10-23T14:35:28;98492.56;;;7.15;92.36
44148;BME280;29810;55.848;37.368;2022-10-23T14:38:29;98489.84;;;7.18;92.76
44148;BME280;29810;55.848;37.368;2022-10-23T14:41:32;98492.75;;;7.09;92.78
44148;BME280;29810;55.848;37.368;2022-10-23T14:44:33;98489.66;;;6.97;92.48
44148;BME280;29810;55.848;37.368;2022-10-23T14:47:35;98488.97;;;6.92;92.60
44148;BME280;29810;55.848;37.368;2022-10-23T14:50:42;98484.84;;;6.87;92.84
44148;BME280;29810;55.848;37.368;2022-10-23T14:53:45;98484.28;;;7.04;94.74
44148;BME280;29810;55.848;37.368;2022-10-23T14:56:46;98480.16;;;6.98;93.65
44148;BME280;29810;55.848;37.368;2022-10-23T14:59:48;98466.25;;;7.01;93.97
44148;BME280;29810;55.848;37.368;2022-10-23T15:02:50;98471.75;;;6.91;94.03
44148;BME280;29810;55.848;37.368;2022-10-23T15:05:51;98472.44;;;6.96;94.14
44148;BME280;29810;55.848;37.368;2022-10-23T15:08:54;98468.41;;;6.88;94.18
44148;BME280;29810;55.848;37.368;2022-10-23T15:11:55;98467.66;;;6.84;94.21
44148;BME280;29810;55.848;37.368;2022-10-23T15:14:57;98468.66;;;6.80;94.35
44148;BME280;29810;55.848;37.368;2022-10-23T15:17:58;98470.38;;;6.81;94.51
44148;BME280;29810;55.848;37.368;2022-10-23T15:21:00;98466.91;;;6.80;94.60
44148;BME280;29810;55.848;37.368;2022-10-23T15:24:02;98467.78;;;6.81;94.78
44148;BME280;29810;55.848;37.368;2022-10-23T15:27:03;98457.41;;;6.81;95.06
44148;BME280;29810;55.848;37.368;2022-10-23T15:30:07;98465.97;;;6.83;95.21
44148;BME280;29810;55.848;37.368;2022-10-23T15:33:08;98468.50;;;6.85;95.54
44148;BME280;29810;55.848;37.368;2022-10-23T15:36:10;98451.06;;;6.90;95.48
44148;BME280;29810;55.848;37.368;2022-10-23T15:39:13;98455.19;;;6.95;95.63
44148;BME280;29810;55.848;37.368;2022-10-23T15:42:16;98464.56;;;7.00;95.62
44148;BME280;29810;55.848;37.368;2022-10-23T15:45:19;98445.03;;;6.89;95.24
44148;BME280;29810;55.848;37.368;2022-10-23T15:48:21;98455.19;;;6.95;95.47
44148;BME280;29810;55.848;37.368;2022-10-23T15:51:23;98451.81;;;6.93;95.45
44148;BME280;29810;55.848;37.368;2022-10-23T15:54:26;98452.63;;;6.95;95.41
44148;BME280;29810;55.848;37.368;2022-10-23T15:57:27;98437.84;;;6.97;95.75
44148;BME280;29810;55.848;37.368;2022-10-23T16:00:31;98440.22;;;7.04;95.98
44148;BME280;29810;55.848;37.368;2022-10-23T16:03:37;98457.31;;;7.35;95.71
44148;BME280;29810;55.848;37.368;2022-10-23T16:06:39;98436.97;;;7.22;95.01
44148;BME280;29810;55.848;37.368;2022-10-23T16:09:41;98457.34;;;7.33;94.95
44148;BME280;29810;55.848;37.368;2022-10-23T16:12:43;98444.81;;;7.21;94.83
44148;BME280;29810;55.848;37.368;2022-10-23T16:15:46;98467.00;;;7.29;94.97
44148;BME280;29810;55.848;37.368;2022-10-23T16:18:48;98430.28;;;7.17;94.91
44148;BME280;29810;55.848;37.368;2022-10-23T16:21:50;98460.78;;;7.34;94.97
44148;BME280;29810;55.848;37.368;2022-10-23T16:24:51;98460.16;;;7.27;94.67
44148;BME280;29810;55.848;37.368;2022-10-23T16:27:53;98458.41;;;7.27;94.79
44148;BME280;29810;55.848;37.368;2022-10-23T16:30:54;98445.56;;;7.24;94.90
44148;BME280;29810;55.848;37.368;2022-10-23T16:33:58;98448.59;;;7.36;95.03
44148;BME280;29810;55.848;37.368;2022-10-23T16:37:00;98454.59;;;7.38;95.09
44148;BME280;29810;55.848;37.368;2022-10-23T16:40:04;98444.66;;;7.25;94.58
44148;BME280;29810;55.848;37.368;2022-10-23T16:43:10;98429.38;;;7.18;95.07
44148;BME280;29810;55.848;37.368;2022-10-23T16:46:16;98439.47;;;7.25;95.18
44148;BME280;29810;55.848;37.368;2022-10-23T16:49:18;98436.09;;;7.23;94.92
44148;BME280;29810;55.848;37.368;2022-10-23T16:52:20;98403.81;;;7.07;94.75
44148;BME280;29810;55.848;37.368;2022-10-23T16:55:21;98406.19;;;7.13;94.89
44148;BME280;29810;55.848;37.368;2022-10-23T16:58:25;98419.84;;;7.18;95.15
44148;BME280;29810;55.848;37.368;2022-10-23T17:01:49;98409.94;;;7.06;95.15
44148;BME280;29810;55.848;37.368;2022-10-23T17:04:55;98418.00;;;7.22;95.23
44148;BME280;29810;55.848;37.368;2022-10-23T17:07:56;98407.69;;;7.20;95.06
44148;BME280;29810;55.848;37.368;2022-10-23T17:14:12;98390.84;;;7.07;95.57
44148;BME280;29810;55.848;37.368;2022-10-23T17:17:17;98402.59;;;7.17;95.73
44148;BME280;29810;55.848;37.368;2022-10-23T17:20:18;98395.50;;;7.22;96.02
44148;BME280;29810;55.848;37.368;2022-10-23T17:23:21;98397.06;;;7.26;96.08
44148;BME280;29810;55.848;37.368;2022-10-23T17:26:22;98391.66;;;7.33;95.82
44148;BME280;29810;55.848;37.368;2022-10-23T17:29:25;98386.34;;;7.36;95.93
44148;BME280;29810;55.848;37.368;2022-10-23T17:32:26;98384.78;;;7.32;95.75
44148;BME280;29810;55.848;37.368;2022-10-23T17:35:28;98381.28;;;7.33;95.67
44148;BME280;29810;55.848;37.368;2022-10-23T17:38:35;98374.41;;;7.32;95.92
44148;BME280;29810;55.848;37.368;2022-10-23T17:41:37;98356.72;;;7.19;95.79